This is the latest recevied weather packets stored in our database for station/object ON3FV. If no packets are shown the sender has not sent any weather packets the latest 10 day(s).
| Time | Temp. | Humidity | Pressure | Rain* | Wind** | Luminosity | Snow |
|---|---|---|---|---|---|---|---|
| 1777640567 | 23.33° C | 40% | 1020.8 hPa | - | - | - | - |
| 1777639664 | 23.33° C | 41% | 1020.9 hPa | - | - | - | - |
| 1777639062 | 22.78° C | 41% | 1020.9 hPa | - | - | - | - |
| 1777637558 | 22.78° C | 41% | 1021.1 hPa | - | - | - | - |
| 1777637255 | 22.78° C | 41% | 1021.1 hPa | - | - | - | - |
| 1777636674 | 22.78° C | 42% | 1021.3 hPa | - | - | - | - |
| 1777636051 | 22.22° C | 42% | 1021.3 hPa | - | - | - | - |
| 1777635771 | 22.22° C | 42% | 1021.4 hPa | - | - | - | - |
| 1777632440 | 21.67° C | 44% | 1021.8 hPa | - | - | - | - |
| 1777632159 | 21.11° C | 43% | 1021.8 hPa | - | - | - | - |
| 1777631537 | 21.11° C | 44% | 1021.9 hPa | - | - | - | - |
| 1777630333 | 20.56° C | 44% | 1022.1 hPa | - | - | - | - |
| 1777629129 | 20° C | 44% | 1022.2 hPa | - | - | - | - |
| 1777627024 | 19.44° C | 45% | 1022.2 hPa | - | - | - | - |
| 1777626723 | 18.89° C | 45% | 1022.3 hPa | - | - | - | - |
| 1777626421 | 18.89° C | 45% | 1022.3 hPa | - | - | - | - |
| 1777625818 | 18.33° C | 46% | 1022.3 hPa | - | - | - | - |
| 1777624915 | 17.78° C | 45% | 1022.5 hPa | - | - | - | - |
| 1777624012 | 17.78° C | 45% | 1022.5 hPa | - | - | - | - |
| 1777621002 | 16.67° C | 47% | 1022.5 hPa | - | - | - | - |
| 1777620098 | 15.56° C | 50% | 1022.3 hPa | - | - | - | - |
| 1777618012 | 13.89° C | 54% | 1022.2 hPa | - | - | - | - |
| 1777617389 | 13.33° C | 53% | 1022.2 hPa | - | - | - | - |
| 1777616788 | 12.78° C | 55% | 1022.2 hPa | - | - | - | - |
| 1777614119 | 8.33° C | 60% | 1022 hPa | - | - | - | - |
* Rain since midnight (hover to see other rain measurements)
** Current wind speed in m/s (hover to see current wind gust speed)